createdAt,value
2023-07-23T00:00:23.764Z,2.30
2023-07-23T00:02:50.323Z,2.63
2023-07-23T00:05:16.885Z,2.50
2023-07-23T00:07:43.442Z,2.47
2023-07-23T00:10:12.881Z,2.92
2023-07-23T00:12:39.385Z,2.42
2023-07-23T00:15:06.179Z,2.72
2023-07-23T00:17:32.728Z,2.90
2023-07-23T00:19:59.360Z,2.95
2023-07-23T00:22:27.095Z,2.83
2023-07-23T00:24:58.183Z,3.20
2023-07-23T00:27:24.746Z,3.22
2023-07-23T00:29:51.257Z,3.25
2023-07-23T00:32:17.737Z,3.05
2023-07-23T00:34:44.250Z,2.85
2023-07-23T00:37:10.912Z,2.92
2023-07-23T00:39:39.943Z,2.70
2023-07-23T00:42:06.561Z,2.83
2023-07-23T00:44:33.132Z,3.25
2023-07-23T00:47:01.230Z,2.90
2023-07-23T00:49:28.293Z,3.00
2023-07-23T00:51:54.816Z,2.72
2023-07-23T00:54:22.182Z,3.05
2023-07-23T00:56:48.974Z,3.00
2023-07-23T00:59:15.553Z,2.90
2023-07-23T01:01:42.167Z,2.72
2023-07-23T01:04:08.733Z,3.08
2023-07-23T01:06:37.558Z,3.60
2023-07-23T01:09:05.245Z,3.05
2023-07-23T01:11:32.364Z,2.97
2023-07-23T01:14:02.317Z,2.78
2023-07-23T01:16:28.867Z,3.00
2023-07-23T01:18:55.488Z,2.63
2023-07-23T01:21:22.006Z,3.05
2023-07-23T01:23:48.541Z,2.90
2023-07-23T01:26:17.385Z,3.00
2023-07-23T01:28:43.909Z,3.13
2023-07-23T01:31:13.639Z,3.33
2023-07-23T01:33:43.227Z,3.40
2023-07-23T01:36:10.798Z,3.15
2023-07-23T01:38:37.545Z,2.63
2023-07-23T01:41:05.153Z,3.00
2023-07-23T01:43:31.809Z,2.72
2023-07-23T01:45:58.300Z,3.00
2023-07-23T01:48:26.259Z,2.63
2023-07-23T01:50:52.778Z,2.83
2023-07-23T01:53:19.342Z,2.75
2023-07-23T01:55:45.857Z,2.80
2023-07-23T01:58:12.414Z,2.60
2023-07-23T02:00:39.460Z,2.33
2023-07-23T02:03:06.052Z,2.83
2023-07-23T02:05:32.593Z,2.67
2023-07-23T02:07:59.130Z,2.95
2023-07-23T02:10:25.654Z,2.65
2023-07-23T02:12:52.185Z,2.88
2023-07-23T02:15:19.845Z,3.45
2023-07-23T02:17:46.501Z,3.33
2023-07-23T02:20:13.163Z,3.15
2023-07-23T02:22:39.694Z,2.40
2023-07-23T02:25:06.554Z,3.00
2023-07-23T02:27:34.593Z,3.30
2023-07-23T02:30:01.077Z,3.45
2023-07-23T02:32:27.665Z,2.97
2023-07-23T02:34:54.198Z,2.90
2023-07-23T02:37:20.721Z,3.25
2023-07-23T02:39:47.240Z,2.13
2023-07-23T02:42:13.724Z,3.03
2023-07-23T02:44:40.516Z,2.83
2023-07-23T02:47:07.113Z,3.35
2023-07-23T02:49:33.611Z,3.00
2023-07-23T02:52:00.256Z,3.20
2023-07-23T02:54:26.757Z,3.17
2023-07-23T02:56:53.245Z,2.95
2023-07-23T02:59:19.786Z,2.90
2023-07-23T03:01:46.290Z,2.70
2023-07-23T03:04:14.901Z,2.60
2023-07-23T03:06:41.474Z,2.70
2023-07-23T03:09:08.063Z,3.28
2023-07-23T03:11:34.575Z,2.70
2023-07-23T03:14:01.107Z,2.88
2023-07-23T03:16:27.634Z,2.58
2023-07-23T03:18:54.187Z,2.70
2023-07-23T03:21:20.779Z,3.03
2023-07-23T03:23:47.299Z,2.60
2023-07-23T03:26:13.793Z,2.85
2023-07-23T03:28:41.031Z,2.40
2023-07-23T03:31:07.569Z,2.83
2023-07-23T03:33:34.084Z,3.83
2023-07-23T03:36:00.550Z,3.17
2023-07-23T03:38:27.038Z,5.68
2023-07-23T03:40:53.570Z,7.65
2023-07-23T03:43:20.056Z,3.13
2023-07-23T03:45:46.669Z,3.03
2023-07-23T03:48:13.261Z,2.90
2023-07-23T03:50:39.826Z,2.65
2023-07-23T03:53:06.322Z,2.30
2023-07-23T03:55:34.433Z,2.50
2023-07-23T03:58:01.027Z,2.85
2023-07-23T04:00:27.531Z,2.80
2023-07-23T04:02:54.059Z,3.05
2023-07-23T04:05:20.646Z,2.83
2023-07-23T04:07:47.131Z,2.60
2023-07-23T04:10:13.674Z,2.42
2023-07-23T04:12:40.224Z,2.78
2023-07-23T04:15:07.006Z,3.92
2023-07-23T04:17:33.729Z,3.45
2023-07-23T04:20:00.371Z,2.47
2023-07-23T04:22:26.902Z,3.10
2023-07-23T04:24:53.603Z,2.75
2023-07-23T04:27:20.191Z,2.88
2023-07-23T04:29:46.700Z,3.00
2023-07-23T04:32:13.213Z,2.58
2023-07-23T04:34:40.310Z,3.15
2023-07-23T04:37:08.057Z,3.20
2023-07-23T04:39:34.817Z,2.83
2023-07-23T04:42:01.452Z,2.70
2023-07-23T04:44:28.246Z,2.88
2023-07-23T04:46:54.756Z,3.38
2023-07-23T04:49:21.244Z,2.55
2023-07-23T04:51:47.740Z,2.92
2023-07-23T04:54:14.304Z,2.70
2023-07-23T04:56:40.933Z,2.50
2023-07-23T04:59:08.600Z,2.83
2023-07-23T05:01:35.247Z,2.67
2023-07-23T05:04:01.886Z,3.10
2023-07-23T05:06:28.455Z,2.97
2023-07-23T05:08:54.946Z,2.95
2023-07-23T05:11:21.402Z,2.80
2023-07-23T05:13:48.047Z,3.67
2023-07-23T05:16:14.669Z,3.38
2023-07-23T05:18:41.219Z,3.20
2023-07-23T05:21:07.835Z,3.22
2023-07-23T05:23:34.383Z,4.38
2023-07-23T05:26:00.945Z,3.40
2023-07-23T05:28:27.427Z,3.40
2023-07-23T05:31:00.796Z,2.88
2023-07-23T05:33:27.676Z,2.83
2023-07-23T05:35:54.492Z,2.97
2023-07-23T05:38:21.064Z,2.92
2023-07-23T05:40:59.816Z,3.45
2023-07-23T05:43:29.248Z,2.63
2023-07-23T05:45:57.884Z,3.28
2023-07-23T05:48:24.482Z,3.08
2023-07-23T05:50:51.018Z,3.72
2023-07-23T05:53:17.623Z,2.92
2023-07-23T05:55:44.150Z,2.83
2023-07-23T05:58:10.628Z,3.58
2023-07-23T06:00:37.133Z,3.13
2023-07-23T06:03:03.918Z,3.50
2023-07-23T06:05:30.516Z,3.70
2023-07-23T06:07:57.101Z,3.25
2023-07-23T06:10:23.667Z,2.92
2023-07-23T06:12:50.199Z,3.25
2023-07-23T06:15:16.810Z,3.15
2023-07-23T06:17:43.351Z,3.53
2023-07-23T06:20:10.217Z,3.53
2023-07-23T06:22:36.720Z,3.35
2023-07-23T06:25:03.547Z,3.10
2023-07-23T06:27:30.055Z,3.15
2023-07-23T06:29:56.581Z,2.92
2023-07-23T06:32:23.227Z,2.85
2023-07-23T06:34:49.747Z,2.85
2023-07-23T06:37:16.194Z,3.05
2023-07-23T06:39:42.679Z,3.25
2023-07-23T06:42:09.177Z,3.67
2023-07-23T06:44:35.711Z,3.00
2023-07-23T06:47:02.262Z,3.47
2023-07-23T06:49:29.794Z,2.92
2023-07-23T06:51:57.029Z,3.00
2023-07-23T06:54:23.950Z,3.35
2023-07-23T06:56:54.958Z,3.47
2023-07-23T06:59:21.857Z,2.90
2023-07-23T07:01:48.474Z,3.40
2023-07-23T07:04:15.041Z,2.65
2023-07-23T07:06:41.564Z,2.30
2023-07-23T07:09:08.135Z,2.60
2023-07-23T07:11:34.664Z,2.67
2023-07-23T07:14:01.190Z,2.45
2023-07-23T07:16:27.738Z,2.55
2023-07-23T07:18:54.757Z,2.83
2023-07-23T07:21:21.263Z,2.50
2023-07-23T07:23:47.810Z,2.45
2023-07-23T07:26:14.376Z,2.35
2023-07-23T07:28:40.940Z,2.85
2023-07-23T07:31:07.541Z,2.70
2023-07-23T07:33:34.123Z,2.33
2023-07-23T07:36:01.609Z,2.35
2023-07-23T07:38:28.697Z,2.83
2023-07-23T07:40:57.330Z,2.80
2023-07-23T07:43:24.473Z,2.33
2023-07-23T07:45:55.333Z,3.33
2023-07-23T07:48:22.245Z,2.28
2023-07-23T07:50:57.619Z,2.40
2023-07-23T07:53:24.161Z,2.33
2023-07-23T07:55:50.683Z,3.15
2023-07-23T07:58:18.042Z,2.22
2023-07-23T08:00:44.864Z,2.33
2023-07-23T08:03:11.873Z,2.80
2023-07-23T08:05:39.152Z,2.15
2023-07-23T08:08:07.076Z,2.47
2023-07-23T08:10:35.461Z,2.40
2023-07-23T08:13:03.573Z,2.00
2023-07-23T08:15:32.637Z,2.42
2023-07-23T08:18:00.778Z,2.10
2023-07-23T08:20:33.793Z,2.03
2023-07-23T08:23:00.570Z,1.65
2023-07-23T08:25:27.450Z,2.05
2023-07-23T08:28:03.082Z,1.65
2023-07-23T08:30:30.806Z,1.70
2023-07-23T08:32:59.284Z,1.70
2023-07-23T08:35:27.548Z,1.67
2023-07-23T08:37:55.635Z,1.55
2023-07-23T08:40:24.718Z,1.23
2023-07-23T08:42:56.984Z,1.48
2023-07-23T08:45:50.660Z,1.25
2023-07-23T08:48:18.369Z,1.00
2023-07-23T08:50:51.298Z,1.17
2023-07-23T08:53:19.201Z,1.42
2023-07-23T08:55:47.454Z,1.20
2023-07-23T08:58:18.380Z,1.10
2023-07-23T09:00:46.584Z,1.52
2023-07-23T09:03:15.797Z,1.30
2023-07-23T09:05:42.476Z,1.30
2023-07-23T09:08:09.008Z,1.30
2023-07-23T09:10:35.586Z,1.10
2023-07-23T09:13:15.606Z,1.40
2023-07-23T09:15:43.204Z,1.10
2023-07-23T09:18:10.233Z,1.13
2023-07-23T09:20:36.815Z,1.35
2023-07-23T09:23:07.813Z,1.00
2023-07-23T09:25:34.937Z,1.20
2023-07-23T09:28:01.515Z,1.20
2023-07-23T09:30:29.071Z,1.10
2023-07-23T09:33:03.048Z,1.08
2023-07-23T09:35:31.352Z,1.00
2023-07-23T09:37:59.772Z,1.10
2023-07-23T09:40:41.119Z,1.00
2023-07-23T09:43:08.484Z,1.20
2023-07-23T09:45:39.990Z,1.20
2023-07-23T09:48:16.059Z,1.80
2023-07-23T09:50:43.240Z,0.90
2023-07-23T09:53:10.451Z,1.30
2023-07-23T09:55:38.195Z,1.20
2023-07-23T09:58:06.914Z,1.30
2023-07-23T10:00:35.224Z,1.30
2023-07-23T10:03:04.023Z,1.55
2023-07-23T10:05:32.804Z,1.20
2023-07-23T10:08:04.808Z,1.25
2023-07-23T10:10:31.781Z,0.93
2023-07-23T10:12:58.335Z,1.30
2023-07-23T10:15:24.969Z,1.30
2023-07-23T10:17:55.994Z,1.20
2023-07-23T10:20:23.373Z,1.60
2023-07-23T10:22:50.304Z,1.33
2023-07-23T10:25:34.629Z,1.27
2023-07-23T10:28:09.015Z,1.67
2023-07-23T10:30:39.868Z,1.63
2023-07-23T10:33:13.003Z,1.77
2023-07-23T10:35:55.898Z,1.73
2023-07-23T10:38:27.689Z,1.73
2023-07-23T10:40:54.465Z,1.90
2023-07-23T10:43:20.979Z,1.83
2023-07-23T10:46:11.646Z,2.08
2023-07-23T10:48:43.104Z,1.80
2023-07-23T10:51:11.591Z,2.40
2023-07-23T10:53:40.585Z,2.55
2023-07-23T10:56:23.246Z,2.50
2023-07-23T10:58:50.764Z,2.28
2023-07-23T11:01:24.963Z,2.80
2023-07-23T11:03:55.281Z,2.10
2023-07-23T11:06:29.687Z,2.60
2023-07-23T11:08:58.925Z,2.47
2023-07-23T11:11:40.470Z,2.45
2023-07-23T11:14:21.230Z,2.05
2023-07-23T11:16:50.055Z,2.22
2023-07-23T11:19:21.226Z,2.20
2023-07-23T11:21:53.273Z,2.20
2023-07-23T11:24:21.330Z,2.58
2023-07-23T11:26:48.664Z,2.95
2023-07-23T11:29:15.449Z,2.60
2023-07-23T11:31:42.971Z,2.95
2023-07-23T11:34:10.079Z,2.80
2023-07-23T11:36:39.282Z,3.30
2023-07-23T11:39:07.490Z,3.13
2023-07-23T11:41:42.252Z,3.00
2023-07-23T11:44:09.733Z,3.08
2023-07-23T11:46:40.916Z,3.33
2023-07-23T11:49:11.024Z,2.08
2023-07-23T11:51:38.776Z,2.10
2023-07-23T11:54:13.027Z,2.28
2023-07-23T11:56:47.073Z,2.00
2023-07-23T11:59:18.316Z,1.92
2023-07-23T12:01:46.423Z,1.60
2023-07-23T12:04:13.215Z,1.83
2023-07-23T12:06:41.111Z,2.13
2023-07-23T12:09:09.734Z,1.90
2023-07-23T12:11:39.066Z,1.83
2023-07-23T12:14:07.741Z,1.73
2023-07-23T12:16:48.254Z,1.88
2023-07-23T12:19:19.940Z,1.63
2023-07-23T12:21:48.891Z,2.15
2023-07-23T12:24:30.038Z,1.80
2023-07-23T12:26:58.641Z,1.83
2023-07-23T12:29:26.850Z,1.65
2023-07-23T12:32:17.810Z,1.90
2023-07-23T12:34:46.319Z,2.08
2023-07-23T12:37:14.105Z,2.30
2023-07-23T12:39:40.921Z,2.15
2023-07-23T12:42:07.809Z,1.90
2023-07-23T12:44:35.412Z,1.83
2023-07-23T12:47:02.150Z,2.20
2023-07-23T12:49:28.689Z,2.15
2023-07-23T12:51:55.173Z,2.42
2023-07-23T12:54:21.639Z,1.92
2023-07-23T12:56:48.195Z,2.08
2023-07-23T12:59:14.764Z,2.00
2023-07-23T13:01:42.490Z,2.38
2023-07-23T13:04:09.309Z,2.00
2023-07-23T13:06:35.955Z,2.50
2023-07-23T13:09:02.540Z,2.17
2023-07-23T13:11:29.048Z,2.72
2023-07-23T13:13:55.546Z,2.50
2023-07-23T13:16:22.143Z,2.40
2023-07-23T13:18:48.867Z,2.33
2023-07-23T13:21:15.555Z,2.15
2023-07-23T13:23:43.032Z,2.33
2023-07-23T13:26:09.697Z,2.72
2023-07-23T13:28:36.202Z,2.20
2023-07-23T13:31:02.974Z,2.40
2023-07-23T13:33:29.567Z,2.22
2023-07-23T13:35:56.108Z,2.28
2023-07-23T13:38:23.793Z,2.33
2023-07-23T13:40:51.563Z,2.50
2023-07-23T13:43:18.128Z,2.72
2023-07-23T13:45:44.683Z,2.70
2023-07-23T13:48:11.224Z,2.53
2023-07-23T13:50:49.616Z,2.33
2023-07-23T13:53:18.202Z,2.33
2023-07-23T13:55:44.757Z,2.30
2023-07-23T13:58:11.318Z,2.80
2023-07-23T14:00:37.971Z,2.40
2023-07-23T14:03:05.065Z,2.70
2023-07-23T14:05:32.492Z,2.38
2023-07-23T14:07:59.298Z,2.97
2023-07-23T14:10:26.283Z,3.40
2023-07-23T14:12:52.909Z,2.80
2023-07-23T14:15:19.601Z,2.50
2023-07-23T14:17:46.245Z,2.67
2023-07-23T14:20:12.749Z,2.90
2023-07-23T14:22:39.397Z,2.83
2023-07-23T14:25:06.106Z,2.83
2023-07-23T14:27:32.702Z,2.55
2023-07-23T14:29:59.251Z,2.80
2023-07-23T14:32:25.821Z,2.65
2023-07-23T14:34:52.409Z,2.53
2023-07-23T14:37:18.982Z,2.70
2023-07-23T14:39:45.553Z,2.78
2023-07-23T14:42:12.436Z,2.65
2023-07-23T14:44:41.020Z,2.90
2023-07-23T14:47:08.819Z,2.63
2023-07-23T14:49:37.418Z,3.28
2023-07-23T14:52:04.868Z,2.60
2023-07-23T14:54:31.444Z,3.63
2023-07-23T14:56:58.006Z,2.97
2023-07-23T14:59:24.542Z,3.78
2023-07-23T15:01:51.144Z,3.90
2023-07-23T15:04:17.719Z,3.08
2023-07-23T15:06:44.270Z,3.33
2023-07-23T15:09:13.222Z,3.90
2023-07-23T15:11:41.228Z,3.40
2023-07-23T15:14:08.037Z,3.03
2023-07-23T15:16:35.076Z,3.42
2023-07-23T15:19:01.919Z,3.20
2023-07-23T15:21:29.024Z,3.17
2023-07-23T15:23:56.176Z,3.53
2023-07-23T15:26:26.379Z,3.13
2023-07-23T15:28:57.168Z,4.25
2023-07-23T15:31:23.689Z,4.03
2023-07-23T15:33:50.167Z,4.30
2023-07-23T15:36:16.692Z,4.22
2023-07-23T15:38:43.219Z,3.63
2023-07-23T15:41:09.917Z,3.67
2023-07-23T15:43:37.175Z,3.30
2023-07-23T15:46:03.670Z,4.28
2023-07-23T15:48:30.192Z,4.45
2023-07-23T15:50:56.688Z,4.10
2023-07-23T15:53:23.278Z,4.25
2023-07-23T15:55:49.854Z,4.25
2023-07-23T15:58:16.357Z,4.43
2023-07-23T16:00:43.240Z,4.25
2023-07-23T16:03:09.810Z,4.30
2023-07-23T16:05:36.501Z,4.20
2023-07-23T16:08:03.054Z,4.50
2023-07-23T16:10:29.875Z,3.97
2023-07-23T16:12:57.611Z,5.47
2023-07-23T16:15:25.005Z,3.97
2023-07-23T16:17:51.618Z,4.47
2023-07-23T16:20:18.292Z,4.63
2023-07-23T16:22:44.830Z,5.10
2023-07-23T16:25:11.393Z,4.90
2023-07-23T16:27:38.523Z,5.90
2023-07-23T16:30:05.842Z,4.78
2023-07-23T16:32:32.806Z,4.38
2023-07-23T16:34:59.577Z,4.97
2023-07-23T16:37:29.271Z,4.32
2023-07-23T16:39:57.627Z,4.90
2023-07-23T16:42:26.811Z,4.15
2023-07-23T16:44:54.119Z,3.50
2023-07-23T16:47:20.708Z,3.83
2023-07-23T16:49:47.261Z,3.90
2023-07-23T16:52:13.815Z,3.88
2023-07-23T16:54:40.351Z,3.70
2023-07-23T16:57:08.380Z,4.05
2023-07-23T16:59:34.882Z,4.28
2023-07-23T17:02:01.426Z,3.70
2023-07-23T17:04:28.512Z,3.92
2023-07-23T17:06:55.032Z,3.97
2023-07-23T17:09:21.550Z,3.47
2023-07-23T17:11:48.693Z,4.00
2023-07-23T17:14:15.290Z,3.80
2023-07-23T17:16:41.990Z,4.13
2023-07-23T17:19:08.497Z,4.80
2023-07-23T17:21:35.038Z,4.47
2023-07-23T17:24:01.573Z,4.15
2023-07-23T17:26:28.377Z,4.00
2023-07-23T17:28:55.140Z,4.60
2023-07-23T17:31:27.564Z,4.18
2023-07-23T17:36:20.655Z,4.30
2023-07-23T17:38:47.267Z,3.53
2023-07-23T17:41:17.152Z,4.45
2023-07-23T17:43:43.986Z,5.00
2023-07-23T17:46:10.586Z,4.07
2023-07-23T17:48:37.160Z,3.97
2023-07-23T17:51:03.822Z,3.90
2023-07-23T17:53:30.369Z,3.47
2023-07-23T17:55:56.831Z,4.18
2023-07-23T17:58:25.587Z,3.95
2023-07-23T18:00:52.147Z,4.00
2023-07-23T18:03:19.746Z,4.15
2023-07-23T18:05:53.755Z,4.15
2023-07-23T18:08:20.308Z,4.10
2023-07-23T18:10:46.830Z,4.25
2023-07-23T18:13:13.590Z,5.07
2023-07-23T18:15:40.406Z,3.25
2023-07-23T18:18:06.934Z,3.80
2023-07-23T18:20:33.472Z,3.90
2023-07-23T18:23:01.785Z,4.15
2023-07-23T18:25:28.389Z,4.13
2023-07-23T18:27:55.709Z,4.20
2023-07-23T18:30:22.227Z,4.25
2023-07-23T18:32:48.912Z,4.13
2023-07-23T18:35:15.856Z,4.22
2023-07-23T18:37:42.476Z,4.43
2023-07-23T18:40:09.416Z,4.72
2023-07-23T18:42:35.986Z,3.90
2023-07-23T18:45:04.316Z,4.20
2023-07-23T18:47:30.879Z,4.30
2023-07-23T18:49:57.402Z,4.00
2023-07-23T18:52:26.357Z,3.95
2023-07-23T18:54:54.498Z,3.42
2023-07-23T18:57:20.986Z,4.53
2023-07-23T18:59:47.562Z,4.55
2023-07-23T19:02:14.069Z,4.10
2023-07-23T19:04:46.048Z,4.15
2023-07-23T19:07:14.048Z,4.13
2023-07-23T19:09:40.704Z,4.82
2023-07-23T19:12:07.958Z,4.40
2023-07-23T19:14:34.528Z,4.03
2023-07-23T19:17:01.204Z,4.18
2023-07-23T19:19:28.408Z,4.20
2023-07-23T19:21:55.178Z,4.80
2023-07-23T19:24:21.704Z,4.18
2023-07-23T19:26:48.370Z,4.72
2023-07-23T19:29:14.937Z,4.38
2023-07-23T19:31:42.612Z,5.18
2023-07-23T19:34:09.317Z,3.92
2023-07-23T19:36:37.841Z,4.22
2023-07-23T19:39:04.601Z,4.85
2023-07-23T19:41:31.434Z,4.30
2023-07-23T19:44:00.126Z,4.82
2023-07-23T19:46:26.706Z,5.18
2023-07-23T19:48:53.266Z,4.53
2023-07-23T19:51:19.755Z,4.70
2023-07-23T19:53:47.456Z,4.88
2023-07-23T19:56:15.900Z,4.70
2023-07-23T19:58:42.474Z,5.18
2023-07-23T20:01:09.024Z,6.55
2023-07-23T20:03:35.662Z,5.15
2023-07-23T20:06:02.219Z,5.20
2023-07-23T20:08:28.991Z,5.15
2023-07-23T20:10:55.563Z,5.78
2023-07-23T20:13:22.277Z,5.35
2023-07-23T20:15:50.364Z,5.20
2023-07-23T20:18:16.971Z,5.88
2023-07-23T20:20:48.587Z,5.50
2023-07-23T20:23:15.268Z,4.65
2023-07-23T20:25:41.877Z,4.90
2023-07-23T20:28:09.368Z,5.05
2023-07-23T20:30:36.310Z,5.20
2023-07-23T20:33:03.287Z,5.82
2023-07-23T20:35:30.481Z,5.30
2023-07-23T20:37:57.416Z,4.95
2023-07-23T20:40:24.259Z,5.05
2023-07-23T20:42:51.136Z,4.57
2023-07-23T20:45:17.790Z,4.88
2023-07-23T20:47:44.431Z,4.40
2023-07-23T20:50:11.074Z,5.45
2023-07-23T20:52:39.515Z,4.22
2023-07-23T20:55:07.198Z,4.60
2023-07-23T20:57:33.755Z,5.05
2023-07-23T21:00:00.215Z,5.00
2023-07-23T21:02:26.727Z,4.68
2023-07-23T21:04:53.326Z,4.97
2023-07-23T21:07:19.772Z,4.75
2023-07-23T21:09:46.424Z,5.03
2023-07-23T21:12:15.628Z,4.95
2023-07-23T21:14:42.118Z,5.38
2023-07-23T21:17:08.685Z,5.10
2023-07-23T21:19:35.202Z,4.93
2023-07-23T21:22:01.763Z,5.43
2023-07-23T21:24:28.375Z,4.80
2023-07-23T21:26:54.887Z,5.32
2023-07-23T21:29:24.172Z,4.80
2023-07-23T21:31:50.732Z,5.82
2023-07-23T21:34:17.247Z,5.32
2023-07-23T21:36:43.770Z,5.97
2023-07-23T21:39:10.255Z,5.55
2023-07-23T21:41:36.729Z,5.60
2023-07-23T21:44:03.336Z,5.45
2023-07-23T21:46:30.131Z,5.78
2023-07-23T21:48:56.771Z,5.65
2023-07-23T21:51:23.327Z,5.70
2023-07-23T21:53:49.860Z,5.00
2023-07-23T21:56:16.369Z,5.50
2023-07-23T21:58:42.881Z,4.75
2023-07-23T22:01:09.761Z,4.97
2023-07-23T22:03:36.359Z,5.35
2023-07-23T22:06:02.992Z,5.03
2023-07-23T22:08:29.685Z,5.00
2023-07-23T22:10:56.138Z,5.50
2023-07-23T22:13:22.724Z,4.47
2023-07-23T22:15:49.845Z,5.90
2023-07-23T22:18:16.369Z,5.40
2023-07-23T22:20:42.895Z,5.22
2023-07-23T22:23:09.393Z,5.72
2023-07-23T22:25:36.014Z,5.55
2023-07-23T22:28:02.641Z,5.20
2023-07-23T22:30:31.331Z,5.53
2023-07-23T22:32:58.842Z,4.85
2023-07-23T22:35:25.638Z,5.03
2023-07-23T22:37:52.299Z,5.75
2023-07-23T22:40:18.883Z,5.60
2023-07-23T22:42:47.128Z,5.20
2023-07-23T22:45:14.533Z,5.15
2023-07-23T22:47:41.223Z,5.03
2023-07-23T22:50:08.108Z,5.65
2023-07-23T22:52:37.345Z,5.25
2023-07-23T22:55:04.308Z,5.35
2023-07-23T22:57:31.566Z,5.05
2023-07-23T23:00:01.254Z,5.07
2023-07-23T23:02:27.935Z,5.97
2023-07-23T23:04:54.467Z,4.70
2023-07-23T23:07:20.966Z,5.85
2023-07-23T23:09:47.451Z,5.82
2023-07-23T23:12:14.069Z,4.90
2023-07-23T23:14:40.612Z,4.97
2023-07-23T23:17:07.168Z,5.70
2023-07-23T23:19:33.719Z,5.47
2023-07-23T23:22:00.265Z,5.35
2023-07-23T23:24:26.835Z,5.05
2023-07-23T23:26:53.441Z,5.45
2023-07-23T23:29:20.195Z,5.45
2023-07-23T23:31:46.832Z,5.47
2023-07-23T23:34:13.295Z,5.35
2023-07-23T23:36:39.808Z,5.68
2023-07-23T23:39:06.469Z,4.88
2023-07-23T23:41:32.958Z,5.80
2023-07-23T23:43:59.482Z,5.35
2023-07-23T23:46:26.083Z,5.05
2023-07-23T23:48:52.688Z,4.78
2023-07-23T23:51:21.267Z,4.25
2023-07-23T23:53:47.998Z,5.10
2023-07-23T23:56:14.568Z,4.28
2023-07-23T23:58:41.113Z,4.53
